Time;durP1;ratioP1;P1;durP2;ratioP2;P2;SDS_P1;SDS_P2;PMS_P1;PMS_P2;Temp;Humidity;BMP_temperature;BMP_pressure;BME280_temperature;BME280_humidity;BME280_pressure;Samples;Min_cycle;Max_cycle;Signal;HPM_P1;HPM_P2
2022/05/02 00:00:20;;;;;;;20.40;12.02;;;8.40;96.70;;;;;;4904954;29;20655;-70
2022/05/02 00:02:47;;;;;;;23.60;12.95;;;8.40;96.60;;;;;;4905939;29;20032;-70
2022/05/02 00:05:13;;;;;;;22.42;12.88;;;8.40;96.80;;;;;;4897334;29;20557;-69
2022/05/02 00:07:39;;;;;;;20.48;12.25;;;8.40;97.00;;;;;;4904087;29;20036;-70
2022/05/02 00:10:06;;;;;;;21.98;13.50;;;8.50;97.10;;;;;;4907006;29;20082;-70
2022/05/02 00:12:32;;;;;;;19.00;12.43;;;8.40;97.10;;;;;;4906859;29;20072;-70
2022/05/02 00:14:57;;;;;;;22.00;12.25;;;8.40;97.10;;;;;;4905815;29;20103;-70
2022/05/02 00:20:08;;;;;;;23.25;14.32;;;8.40;97.00;;;;;;4905318;29;20078;-70
2022/05/02 00:22:33;;;;;;;24.88;12.45;;;8.40;97.10;;;;;;4894539;29;20407;-70
2022/05/02 00:24:59;;;;;;;26.35;14.93;;;8.40;97.10;;;;;;4903202;29;20040;-70
2022/05/02 00:27:26;;;;;;;21.75;14.32;;;8.40;97.10;;;;;;4900696;29;20020;-70
2022/05/02 00:29:51;;;;;;;23.05;14.18;;;8.50;97.10;;;;;;4905750;29;20455;-70
2022/05/02 00:32:17;;;;;;;20.08;12.60;;;8.50;97.10;;;;;;4902655;29;20422;-70
2022/05/02 00:34:42;;;;;;;19.60;12.10;;;8.60;97.00;;;;;;4901315;29;20071;-71
2022/05/02 00:37:08;;;;;;;18.30;12.27;;;8.60;96.90;;;;;;4902847;29;20102;-70
2022/05/02 00:39:33;;;;;;;21.10;12.52;;;8.60;96.90;;;;;;4904518;29;20200;-70
2022/05/02 00:41:59;;;;;;;19.13;12.40;;;8.70;96.80;;;;;;4905259;29;20028;-70
2022/05/02 00:44:25;;;;;;;22.88;13.75;;;8.70;96.80;;;;;;4905063;29;20127;-70
2022/05/02 00:46:50;;;;;;;20.13;12.63;;;8.70;96.90;;;;;;4905794;29;20043;-70
2022/05/02 00:49:16;;;;;;;21.02;13.65;;;8.80;96.80;;;;;;4899991;29;20036;-70
2022/05/02 00:51:42;;;;;;;19.95;13.00;;;8.80;96.60;;;;;;4905552;29;20036;-70
2022/05/02 00:54:07;;;;;;;20.85;13.57;;;8.80;96.60;;;;;;4895862;29;20033;-70
2022/05/02 00:56:34;;;;;;;21.92;13.32;;;8.80;96.60;;;;;;4908847;29;20094;-70
2022/05/02 00:59:00;;;;;;;23.00;13.75;;;8.80;96.50;;;;;;4903984;29;20059;-70
2022/05/02 01:01:26;;;;;;;23.50;13.50;;;8.80;96.40;;;;;;4902278;29;20499;-70
2022/05/02 01:03:51;;;;;;;22.10;14.00;;;8.80;96.40;;;;;;4900322;29;20488;-70
2022/05/02 01:09:02;;;;;;;22.38;13.43;;;8.80;96.50;;;;;;4886561;29;20048;-70
2022/05/02 01:11:29;;;;;;;25.75;13.55;;;8.80;96.90;;;;;;4899999;29;20039;-70
2022/05/02 01:13:54;;;;;;;25.77;14.43;;;8.90;96.60;;;;;;4903048;29;20047;-70
2022/05/02 01:16:22;;;;;;;21.27;13.27;;;8.90;96.50;;;;;;4905055;29;20510;-70
2022/05/02 01:18:50;;;;;;;20.88;14.50;;;8.90;96.30;;;;;;4900465;29;20119;-70
2022/05/02 01:21:25;;;;;;;20.65;13.35;;;8.80;96.30;;;;;;4904665;29;20087;-70
2022/05/02 01:23:53;;;;;;;21.75;13.57;;;8.90;96.30;;;;;;4903723;29;20032;-70
2022/05/02 01:26:19;;;;;;;18.63;13.13;;;8.90;96.40;;;;;;4904262;29;20028;-70
2022/05/02 01:28:53;;;;;;;20.95;13.95;;;8.90;96.50;;;;;;4904505;29;20149;-70
2022/05/02 01:31:20;;;;;;;21.40;13.52;;;8.90;96.40;;;;;;4890785;29;20039;-70
2022/05/02 01:33:48;;;;;;;23.13;13.93;;;8.90;96.50;;;;;;4897326;29;20119;-70
2022/05/02 01:36:14;;;;;;;21.05;13.00;;;8.90;96.90;;;;;;4897906;29;20039;-70
2022/05/02 01:38:41;;;;;;;21.00;13.43;;;8.90;96.60;;;;;;4897728;29;20172;-70
2022/05/02 01:41:08;;;;;;;20.42;12.65;;;8.80;96.50;;;;;;4902873;29;20095;-70
2022/05/02 01:43:34;;;;;;;19.88;12.93;;;8.80;96.40;;;;;;4902969;29;20601;-70
2022/05/02 01:46:01;;;;;;;20.10;12.95;;;8.80;96.40;;;;;;4905620;29;20306;-70
2022/05/02 01:48:27;;;;;;;19.98;12.55;;;8.80;96.40;;;;;;4902378;29;20040;-70
2022/05/02 01:50:53;;;;;;;18.58;13.15;;;8.80;96.60;;;;;;4896172;29;20435;-71
2022/05/02 01:53:20;;;;;;;21.65;14.00;;;8.70;96.40;;;;;;4905300;29;20031;-70
2022/05/02 01:55:45;;;;;;;22.27;13.57;;;8.80;96.60;;;;;;4906116;29;20127;-71
2022/05/02 01:58:11;;;;;;;23.35;13.77;;;8.80;96.60;;;;;;4905112;29;20112;-70
2022/05/02 02:00:37;;;;;;;22.15;13.43;;;8.80;96.70;;;;;;4901781;29;20052;-70
2022/05/02 02:03:03;;;;;;;19.75;13.18;;;8.70;96.70;;;;;;4903794;29;20115;-71
2022/05/02 02:08:13;;;;;;;17.60;12.60;;;8.80;96.70;;;;;;4905704;29;20043;-70
2022/05/02 02:10:39;;;;;;;16.55;12.38;;;8.80;96.80;;;;;;4905183;29;20036;-70
2022/05/02 02:13:05;;;;;;;19.80;12.93;;;8.80;96.50;;;;;;4904985;29;20087;-70
2022/05/02 02:15:30;;;;;;;18.42;12.38;;;8.80;96.40;;;;;;4903443;29;20051;-70
2022/05/02 02:17:56;;;;;;;21.38;13.52;;;8.80;96.40;;;;;;4904328;29;20028;-70
2022/05/02 02:20:22;;;;;;;22.05;13.52;;;8.80;96.60;;;;;;4901363;29;20139;-71
2022/05/02 02:22:48;;;;;;;22.80;15.05;;;8.70;96.60;;;;;;4904235;29;20395;-71
2022/05/02 02:25:13;;;;;;;22.90;14.57;;;8.70;96.70;;;;;;4901661;29;20472;-70
2022/05/02 02:27:39;;;;;;;24.70;14.70;;;8.70;96.70;;;;;;4905241;29;20028;-70
2022/05/02 02:30:06;;;;;;;21.80;14.48;;;8.70;96.80;;;;;;4903869;29;20103;-71
2022/05/02 02:32:32;;;;;;;24.23;15.13;;;8.70;96.70;;;;;;4904777;29;20111;-71
2022/05/02 02:34:58;;;;;;;24.92;14.50;;;8.80;96.80;;;;;;4903888;29;20050;-71
2022/05/02 02:37:23;;;;;;;24.42;14.95;;;8.70;96.70;;;;;;4898376;29;20830;-71
2022/05/02 02:39:49;;;;;;;26.70;15.50;;;8.70;96.70;;;;;;4904241;29;20047;-70
2022/05/02 02:42:15;;;;;;;23.30;14.90;;;8.70;96.70;;;;;;4906129;29;20080;-70
2022/05/02 02:44:41;;;;;;;18.00;13.10;;;8.70;96.80;;;;;;4905273;29;20035;-70
2022/05/02 02:47:06;;;;;;;19.98;13.43;;;8.80;96.70;;;;;;4905164;29;20123;-71
2022/05/02 02:49:32;;;;;;;21.90;14.18;;;8.80;96.70;;;;;;4912078;29;20033;-70
2022/05/02 02:51:57;;;;;;;23.13;14.05;;;8.70;96.70;;;;;;4902509;29;20039;-70
2022/05/02 02:54:23;;;;;;;21.10;14.32;;;8.80;96.80;;;;;;4905187;29;20044;-70
2022/05/02 02:56:49;;;;;;;23.70;14.40;;;8.70;97.10;;;;;;4906350;29;20049;-70
2022/05/02 02:59:14;;;;;;;28.40;16.08;;;8.80;96.90;;;;;;4905239;29;20519;-70
2022/05/02 03:01:40;;;;;;;23.30;15.43;;;8.80;96.90;;;;;;4907755;29;20043;-70
2022/05/02 03:06:53;;;;;;;30.77;15.95;;;8.70;96.80;;;;;;4905939;29;20447;-70
2022/05/02 03:09:19;;;;;;;23.35;14.98;;;8.80;96.80;;;;;;4909978;29;20039;-70
2022/05/02 03:11:45;;;;;;;25.30;15.68;;;8.80;96.80;;;;;;4920430;29;20041;-70
2022/05/02 03:14:11;;;;;;;25.58;15.23;;;8.80;96.70;;;;;;4907237;29;20491;-70
2022/05/02 03:16:37;;;;;;;25.92;16.45;;;8.80;96.70;;;;;;4908166;29;20039;-70
2022/05/02 03:19:02;;;;;;;23.60;15.70;;;8.70;96.70;;;;;;4906440;29;20044;-71
2022/05/02 03:21:28;;;;;;;24.95;15.85;;;8.80;96.90;;;;;;4907142;29;20044;-70
2022/05/02 03:23:53;;;;;;;29.70;16.58;;;8.80;97.00;;;;;;4909251;29;20043;-70
2022/05/02 03:26:19;;;;;;;24.23;15.95;;;8.80;97.30;;;;;;4897652;29;20032;-70
2022/05/02 03:28:45;;;;;;;27.55;15.90;;;8.80;96.90;;;;;;4894568;29;20592;-70
2022/05/02 03:31:10;;;;;;;25.10;16.15;;;8.80;96.90;;;;;;4909468;29;20407;-70
2022/05/02 03:33:36;;;;;;;24.20;14.70;;;8.80;96.90;;;;;;4910455;29;20040;-70
2022/05/02 03:36:02;;;;;;;23.45;15.48;;;8.90;96.90;;;;;;4907429;29;20036;-70
2022/05/02 03:38:27;;;;;;;26.40;16.27;;;8.90;96.90;;;;;;4908180;29;20036;-70
2022/05/02 03:40:53;;;;;;;25.70;16.05;;;8.80;96.90;;;;;;4897722;29;20036;-70
2022/05/02 03:43:18;;;;;;;27.08;16.45;;;8.80;96.80;;;;;;4908141;29;20032;-70
2022/05/02 03:45:44;;;;;;;28.00;15.40;;;8.80;96.90;;;;;;4905887;29;20044;-70
2022/05/02 03:48:09;;;;;;;28.27;16.60;;;8.80;96.90;;;;;;4906350;29;20254;-70
2022/05/02 03:50:35;;;;;;;31.42;17.52;;;8.80;96.90;;;;;;4907222;29;20040;-70
2022/05/02 03:53:01;;;;;;;27.98;17.77;;;8.80;96.90;;;;;;4907533;29;20044;-70
2022/05/02 03:55:27;;;;;;;29.35;17.90;;;8.80;96.90;;;;;;4908794;29;20035;-70
2022/05/02 03:57:52;;;;;;;29.75;18.23;;;8.80;97.00;;;;;;4906942;29;20059;-70
2022/05/02 04:00:19;;;;;;;29.48;17.17;;;8.80;97.00;;;;;;4906173;29;20544;-70
2022/05/02 04:02:44;;;;;;;26.45;16.73;;;8.70;97.10;;;;;;4899324;29;20064;-70
2022/05/02 04:05:10;;;;;;;27.42;16.48;;;8.80;97.30;;;;;;4905003;29;20064;-70
2022/05/02 04:07:36;;;;;;;24.65;15.52;;;8.80;97.30;;;;;;4907954;29;20040;-70
2022/05/02 04:10:03;;;;;;;25.30;15.93;;;8.80;97.50;;;;;;4907824;29;20092;-70
2022/05/02 04:12:39;;;;;;;24.20;15.10;;;8.80;97.20;;;;;;4906554;29;20032;-70
2022/05/02 04:15:06;;;;;;;23.63;15.07;;;8.80;97.20;;;;;;4907437;29;20495;-70
2022/05/02 04:17:32;;;;;;;25.67;15.10;;;8.80;97.10;;;;;;4908029;29;20055;-70
2022/05/02 04:19:57;;;;;;;26.88;16.70;;;8.70;96.90;;;;;;4907566;29;20044;-69
2022/05/02 04:22:23;;;;;;;28.88;16.65;;;8.70;97.00;;;;;;4907778;29;20623;-70
2022/05/02 04:24:48;;;;;;;27.70;15.52;;;8.70;97.00;;;;;;4907285;29;20036;-70
2022/05/02 04:27:14;;;;;;;26.17;16.73;;;8.80;97.10;;;;;;4906572;29;20055;-70
2022/05/02 04:29:40;;;;;;;25.10;14.80;;;8.80;97.20;;;;;;4906884;29;20036;-70
2022/05/02 04:32:05;;;;;;;28.35;16.13;;;8.80;97.30;;;;;;4921669;29;20071;-70
2022/05/02 04:34:31;;;;;;;26.33;16.02;;;8.80;97.40;;;;;;4906987;29;20039;-70
2022/05/02 04:36:57;;;;;;;26.58;16.73;;;8.80;97.30;;;;;;4905583;29;20036;-70
2022/05/02 04:39:22;;;;;;;25.08;15.27;;;8.80;97.40;;;;;;4906634;29;20223;-70
2022/05/02 04:41:48;;;;;;;28.67;16.77;;;8.80;97.30;;;;;;4908676;29;20020;-70
2022/05/02 04:44:13;;;;;;;26.45;15.30;;;8.80;97.30;;;;;;4907444;29;20424;-70
2022/05/02 04:46:39;;;;;;;30.13;15.85;;;8.70;97.30;;;;;;4906915;29;20087;-70
2022/05/02 04:49:05;;;;;;;24.73;15.88;;;8.70;97.30;;;;;;4907886;29;20043;-70
2022/05/02 04:51:31;;;;;;;27.58;16.90;;;8.70;97.40;;;;;;4903362;29;20287;-69
2022/05/02 04:53:56;;;;;;;27.00;17.75;;;8.80;97.50;;;;;;4907438;29;20032;-70
2022/05/02 04:56:22;;;;;;;30.15;17.48;;;8.80;97.40;;;;;;4907462;29;20088;-69
2022/05/02 04:58:47;;;;;;;25.48;16.00;;;8.80;97.40;;;;;;4905873;29;20069;-70
2022/05/02 05:01:13;;;;;;;23.95;15.73;;;8.80;97.40;;;;;;4907131;29;20542;-70
2022/05/02 05:03:39;;;;;;;25.35;15.63;;;8.80;97.40;;;;;;4901352;29;20047;-69
2022/05/02 05:06:05;;;;;;;23.58;15.48;;;8.80;97.40;;;;;;4906013;29;20079;-70
2022/05/02 05:08:31;;;;;;;26.63;15.43;;;8.80;97.30;;;;;;4907847;29;20549;-70
2022/05/02 05:11:08;;;;;;;27.25;16.83;;;8.80;97.20;;;;;;4901379;29;20461;-70
2022/05/02 05:16:20;;;;;;;23.73;14.13;;;8.80;97.20;;;;;;4902478;29;20032;-70
2022/05/02 05:17:05;;;;;;;22.13;14.63;;;8.90;97.60;;;;;;4889543;29;20119;-69
2022/05/02 05:19:47;;;;;;;20.85;13.80;;;8.90;97.20;;;;;;4905230;29;20048;-70
2022/05/02 05:22:18;;;;;;;23.10;14.07;;;9.00;97.20;;;;;;4906074;29;20043;-70
2022/05/02 05:25:07;;;;;;;21.65;15.23;;;9.00;97.00;;;;;;4905551;29;20043;-70
2022/05/02 05:27:47;;;;;;;21.70;13.55;;;9.00;97.00;;;;;;4905413;29;20075;-70
2022/05/02 05:30:15;;;;;;;21.10;14.23;;;9.10;97.00;;;;;;4903304;29;20038;-70
2022/05/02 05:33:22;;;;;;;23.20;14.57;;;9.10;96.90;;;;;;4905821;29;20356;-70
2022/05/02 05:35:58;;;;;;;21.25;13.90;;;9.20;96.80;;;;;;4880772;29;20041;-70
2022/05/02 05:38:47;;;;;;;23.27;14.13;;;9.20;96.60;;;;;;4906123;29;20032;-70
2022/05/02 05:41:35;;;;;;;23.65;14.35;;;9.30;96.40;;;;;;4905179;29;20036;-70
2022/05/02 05:44:20;;;;;;;21.65;13.30;;;9.30;96.20;;;;;;4905635;29;20518;-70
2022/05/02 05:47:12;;;;;;;22.30;14.43;;;9.40;96.20;;;;;;4904483;29;20036;-70
2022/05/02 05:50:04;;;;;;;21.48;13.10;;;9.40;96.20;;;;;;4903209;29;20762;-70
2022/05/02 05:52:47;;;;;;;20.25;13.63;;;9.40;96.30;;;;;;4898098;29;20048;-70
2022/05/02 05:55:22;;;;;;;23.65;14.27;;;9.40;96.10;;;;;;4905906;29;20068;-69
2022/05/02 05:58:15;;;;;;;22.90;13.95;;;9.50;96.00;;;;;;4902681;29;20031;-70
2022/05/02 06:00:45;;;;;;;24.95;13.98;;;9.50;95.90;;;;;;4912726;29;20060;-70
2022/05/02 06:03:22;;;;;;;23.70;14.77;;;9.60;95.80;;;;;;4902378;29;20057;-70
2022/05/02 06:05:48;;;;;;;21.08;14.20;;;9.60;95.60;;;;;;4915446;29;20036;-70
2022/05/02 06:08:23;;;;;;;23.75;14.52;;;9.70;95.40;;;;;;4906572;29;20381;-70
2022/05/02 06:10:55;;;;;;;23.85;15.20;;;9.80;95.70;;;;;;4905046;29;20028;-70
2022/05/02 06:13:25;;;;;;;21.92;14.57;;;9.90;95.60;;;;;;4904258;29;20035;-70
2022/05/02 06:18:41;;;;;;;25.90;16.67;;;10.10;94.80;;;;;;4893751;29;20043;-70
2022/05/02 06:21:08;;;;;;;21.88;14.95;;;10.10;94.60;;;;;;4905387;29;20094;-70
2022/05/02 06:23:40;;;;;;;22.60;14.48;;;10.20;94.70;;;;;;4904329;29;20083;-70
2022/05/02 06:26:07;;;;;;;20.65;13.27;;;10.40;94.60;;;;;;4904620;29;20574;-70
2022/05/02 06:28:41;;;;;;;22.02;15.43;;;10.50;94.00;;;;;;4904193;29;20040;-70
2022/05/02 06:31:15;;;;;;;19.42;13.38;;;10.60;93.90;;;;;;4902080;29;20024;-70
2022/05/02 06:33:44;;;;;;;22.33;13.75;;;10.60;94.00;;;;;;4904942;29;20646;-70
2022/05/02 06:36:38;;;;;;;23.65;14.27;;;10.50;93.50;;;;;;4902380;29;20032;-70
2022/05/02 06:39:13;;;;;;;21.25;13.02;;;10.60;94.20;;;;;;4898713;29;20051;-70
2022/05/02 06:42:02;;;;;;;21.90;13.15;;;10.70;93.40;;;;;;4898980;29;20035;-70
2022/05/02 06:44:27;;;;;;;19.73;13.18;;;10.80;93.20;;;;;;4901948;29;20028;-70
2022/05/02 06:47:18;;;;;;;27.35;15.52;;;10.80;93.20;;;;;;4903483;29;20141;-71
2022/05/02 06:49:49;;;;;;;21.70;12.77;;;11.00;93.10;;;;;;4902455;29;20483;-70
2022/05/02 06:52:19;;;;;;;;;;;11.10;92.90;;;;;;4901975;29;20056;-71
2022/05/02 06:55:19;;;;;;;18.88;11.90;;;11.20;92.20;;;;;;4899978;29;19919;-70
2022/05/02 06:57:44;;;;;;;16.17;11.70;;;11.30;91.80;;;;;;4913805;29;20680;-70
2022/05/02 07:00:14;;;;;;;20.48;12.48;;;11.40;92.40;;;;;;4912034;29;20150;-70
2022/05/02 07:02:55;;;;;;;19.13;12.50;;;11.40;92.60;;;;;;4903157;29;20042;-70
2022/05/02 07:05:46;;;;;;;18.48;12.68;;;11.40;92.20;;;;;;4894852;29;20427;-70
2022/05/02 07:08:27;;;;;;;17.80;11.82;;;11.40;92.30;;;;;;4898510;29;20051;-70
2022/05/02 07:11:03;;;;;;;23.43;12.43;;;11.40;92.00;;;;;;4898386;29;20403;-71
2022/05/02 07:13:51;;;;;;;16.98;12.48;;;11.40;92.20;;;;;;4901288;29;20467;-70
2022/05/02 07:16:26;;;;;;;19.42;12.45;;;11.30;92.50;;;;;;4902300;29;20494;-70
2022/05/02 07:19:15;;;;;;;20.33;10.85;;;11.40;91.80;;;;;;4902468;29;20091;-70
2022/05/02 07:21:57;;;;;;;14.18;10.73;;;11.50;92.00;;;;;;4905236;29;20040;-71
2022/05/02 07:24:45;;;;;;;16.27;11.65;;;11.60;91.90;;;;;;4905003;29;20038;-71
2022/05/02 07:27:16;;;;;;;18.73;10.75;;;11.70;91.30;;;;;;4902312;29;20094;-71
2022/05/02 07:29:44;;;;;;;21.90;11.55;;;12.00;90.80;;;;;;4903983;29;20035;-71
2022/05/02 07:32:11;;;;;;;15.70;11.43;;;12.20;89.80;;;;;;4900403;29;20028;-71
2022/05/02 07:34:38;;;;;;;17.08;9.98;;;12.60;90.50;;;;;;4900988;29;20033;-70
2022/05/02 07:37:05;;;;;;;15.82;10.40;;;13.10;87.10;;;;;;4901771;29;20380;-71
2022/05/02 07:39:35;;;;;;;12.90;9.13;;;13.50;82.70;;;;;;4903062;29;20044;-71
2022/05/02 07:42:05;;;;;;;12.93;8.48;;;14.00;80.90;;;;;;4903913;29;20028;-70
2022/05/02 07:44:35;;;;;;;13.73;8.00;;;14.60;81.80;;;;;;4900631;29;21893;-71
2022/05/02 07:47:07;;;;;;;11.65;7.55;;;15.20;75.70;;;;;;4904366;29;20419;-71
2022/05/02 07:49:34;;;;;;;10.60;7.55;;;15.50;73.50;;;;;;4905258;29;20036;-71
2022/05/02 07:52:01;;;;;;;10.23;6.88;;;15.80;69.40;;;;;;4904537;29;20035;-71
2022/05/02 07:54:35;;;;;;;9.35;7.55;;;15.80;68.20;;;;;;4904902;29;20032;-71
2022/05/02 07:57:03;;;;;;;9.80;6.75;;;16.30;67.00;;;;;;4906950;29;20088;-71
2022/05/02 07:59:54;;;;;;;9.02;6.50;;;16.70;67.50;;;;;;4904183;29;20591;-71
2022/05/02 08:02:21;;;;;;;9.15;6.20;;;17.10;63.40;;;;;;4900456;29;20215;-71
2022/05/02 08:04:47;;;;;;;9.95;6.70;;;17.30;66.50;;;;;;4905894;29;20514;-71
2022/05/02 08:07:36;;;;;;;11.43;6.55;;;17.70;62.90;;;;;;4904333;29;20119;-71
2022/05/02 08:10:30;;;;;;;8.73;5.90;;;18.60;62.20;;;;;;4906570;29;20024;-71
2022/05/02 08:12:55;;;;;;;6.72;5.25;;;19.60;58.10;;;;;;4901277;29;20036;-72
2022/05/02 08:15:30;;;;;;;8.93;6.05;;;20.70;52.30;;;;;;4904389;29;20091;-71
2022/05/02 08:17:56;;;;;;;6.57;5.55;;;21.10;51.60;;;;;;4903219;29;20028;-71
2022/05/02 08:20:40;;;;;;;6.78;6.15;;;21.00;54.00;;;;;;4918712;29;20051;-71
2022/05/02 08:29:25;;;;;;;7.57;5.75;;;20.20;54.30;;;;;;4901624;29;20082;-72
2022/05/02 08:31:54;;;;;;;6.97;4.97;;;20.00;55.50;;;;;;4903216;29;20515;-71
2022/05/02 08:34:38;;;;;;;6.40;4.72;;;19.70;56.10;;;;;;4904985;29;20087;-71
2022/05/02 08:37:29;;;;;;;5.68;4.80;;;19.50;57.40;;;;;;4913208;29;20122;-71
2022/05/02 08:40:24;;;;;;;6.32;5.38;;;19.10;58.60;;;;;;4894873;29;20103;-71
2022/05/02 08:43:17;;;;;;;8.35;5.90;;;18.30;57.40;;;;;;4898100;29;20053;-71
2022/05/02 08:46:01;;;;;;;7.60;6.40;;;17.60;62.70;;;;;;4907811;29;20611;-72
2022/05/02 08:48:39;;;;;;;10.25;6.22;;;17.20;65.20;;;;;;4893611;29;20039;-71
2022/05/02 08:51:32;;;;;;;8.85;6.38;;;16.50;65.30;;;;;;4897767;29;20040;-71
2022/05/02 08:54:35;;;;;;;10.68;6.88;;;16.00;66.10;;;;;;4902854;29;20103;-72
2022/05/02 08:57:12;;;;;;;7.20;6.25;;;15.60;68.40;;;;;;4901135;29;20055;-71
2022/05/02 08:59:56;;;;;;;8.38;6.78;;;15.30;70.20;;;;;;4911368;29;20515;-71
2022/05/02 09:03:02;;;;;;;8.73;6.53;;;15.10;70.50;;;;;;4917774;29;20039;-71
2022/05/02 09:05:40;;;;;;;8.60;6.13;;;15.10;75.20;;;;;;4898834;29;20446;-71
2022/05/02 09:08:20;;;;;;;9.38;5.60;;;15.10;70.80;;;;;;4903988;29;20139;-71
2022/05/02 09:11:10;;;;;;;8.43;5.90;;;15.00;68.60;;;;;;4903869;29;20030;-71
2022/05/02 09:14:18;;;;;;;6.40;5.40;;;14.90;70.80;;;;;;4903387;29;20032;-71
2022/05/02 09:16:58;;;;;;;9.07;5.32;;;15.00;68.50;;;;;;4904327;29;20031;-71
2022/05/02 09:19:37;;;;;;;6.68;5.20;;;15.10;70.40;;;;;;4904469;29;20602;-71
2022/05/02 09:22:33;;;;;;;7.70;5.25;;;15.10;69.10;;;;;;4903485;29;20514;-71
2022/05/02 09:25:10;;;;;;;8.95;5.63;;;15.30;71.40;;;;;;4914508;29;20040;-71
2022/05/02 09:28:02;;;;;;;7.10;5.50;;;15.40;71.30;;;;;;4904484;29;20117;-71
2022/05/02 09:30:43;;;;;;;9.93;6.03;;;15.30;69.90;;;;;;4905395;29;20032;-71
2022/05/02 09:33:30;;;;;;;7.57;5.97;;;15.40;69.40;;;;;;4905240;29;20063;-71
2022/05/02 09:36:19;;;;;;;6.38;4.55;;;15.10;72.60;;;;;;4904085;29;20294;-71
2022/05/02 09:39:00;;;;;;;5.72;4.97;;;15.00;71.80;;;;;;4887767;29;20040;-71
2022/05/02 09:41:28;;;;;;;6.45;5.03;;;14.90;71.30;;;;;;4897229;29;20044;-71
2022/05/02 09:50:29;;;;;;;7.50;5.00;;;14.10;74.50;;;;;;4895331;29;20031;-71
2022/05/02 09:53:01;;;;;;;6.97;5.03;;;14.00;76.30;;;;;;4923152;29;20066;-71
2022/05/02 09:58:42;;;;;;;7.93;5.40;;;13.60;77.40;;;;;;4902346;29;20510;-71
2022/05/02 10:01:17;;;;;;;7.57;5.75;;;13.40;79.20;;;;;;4894046;29;20742;-71
2022/05/02 10:04:01;;;;;;;7.43;5.65;;;13.40;80.30;;;;;;4901370;29;20160;-72
2022/05/02 10:07:01;;;;;;;9.77;5.97;;;13.50;80.90;;;;;;4923819;29;20114;-71
2022/05/02 10:09:48;;;;;;;8.30;5.78;;;13.40;77.80;;;;;;4922759;29;20047;-71
2022/05/02 10:12:32;;;;;;;9.18;6.38;;;13.50;80.20;;;;;;4580440;29;9999848;-71
2022/05/02 10:15:33;;;;;;;12.23;6.30;;;13.50;80.40;;;;;;4900831;29;20039;-71
2022/05/02 10:18:11;;;;;;;7.20;5.72;;;13.50;81.20;;;;;;4902008;29;20054;-72
2022/05/02 10:20:40;;;;;;;10.38;6.50;;;13.60;80.40;;;;;;4887013;29;20048;-71
2022/05/02 10:23:25;;;;;;;9.30;6.93;;;13.50;79.90;;;;;;4900987;29;20070;-72
2022/05/02 10:26:07;;;;;;;10.52;6.57;;;13.50;80.20;;;;;;4898406;29;20028;-71
2022/05/02 10:29:08;;;;;;;11.18;7.35;;;13.40;80.70;;;;;;4909673;29;20111;-73
2022/05/02 10:31:35;;;;;;;9.98;7.20;;;13.40;80.20;;;;;;4889714;29;21415;-70
2022/05/02 10:34:03;;;;;;;11.07;7.97;;;13.50;80.30;;;;;;4893500;29;20044;-70
2022/05/02 10:36:36;;;;;;;9.52;7.55;;;13.60;79.10;;;;;;4893383;29;20055;-70
2022/05/02 10:39:14;;;;;;;11.15;6.82;;;13.70;77.80;;;;;;4892439;29;20540;-70
2022/05/02 10:41:48;;;;;;;11.65;7.25;;;13.70;80.60;;;;;;4900463;29;20032;-70
2022/05/02 10:44:17;;;;;;;10.60;6.80;;;13.90;78.90;;;;;;4917621;29;20028;-70
2022/05/02 10:46:45;;;;;;;10.90;7.35;;;13.90;78.20;;;;;;4905320;29;20039;-70
2022/05/02 10:49:24;;;;;;;11.10;7.10;;;14.20;78.60;;;;;;4904816;29;20102;-70
2022/05/02 10:52:10;;;;;;;8.20;6.97;;;14.10;75.70;;;;;;4900345;29;20032;-70
2022/05/02 10:54:46;;;;;;;8.65;6.88;;;14.20;75.60;;;;;;4902156;29;20060;-70
2022/05/02 10:57:30;;;;;;;11.68;6.95;;;14.30;76.00;;;;;;4904775;29;20067;-70
2022/05/02 11:00:03;;;;;;;10.60;6.68;;;14.50;74.40;;;;;;4905493;29;20119;-70
2022/05/02 11:02:29;;;;;;;8.82;6.63;;;14.80;74.70;;;;;;4895286;29;20515;-70
2022/05/02 11:05:08;;;;;;;12.65;6.55;;;14.90;75.60;;;;;;4903223;29;20039;-70
2022/05/02 11:07:51;;;;;;;8.55;6.97;;;14.90;74.40;;;;;;4901524;29;20036;-70
2022/05/02 11:10:24;;;;;;;9.73;6.80;;;15.10;76.40;;;;;;4905426;29;20032;-70
2022/05/02 11:13:06;;;;;;;9.93;7.18;;;15.30;75.60;;;;;;4903584;29;20024;-70
2022/05/02 11:15:43;;;;;;;9.63;6.90;;;15.40;71.90;;;;;;4894377;29;20287;-70
2022/05/02 11:21:58;;;;;;;8.10;6.88;;;15.50;70.80;;;;;;4894919;29;20110;-70
2022/05/02 11:24:27;;;;;;;10.93;7.60;;;15.70;70.10;;;;;;4896556;29;20044;-71
2022/05/02 11:27:06;;;;;;;13.93;7.20;;;15.90;71.60;;;;;;4900783;29;20032;-70
2022/05/02 11:29:56;;;;;;;14.05;8.13;;;16.10;69.20;;;;;;4899144;29;20098;-70
2022/05/02 11:32:37;;;;;;;12.30;8.85;;;16.20;69.10;;;;;;4898297;29;20094;-70
2022/05/02 11:35:08;;;;;;;12.02;9.20;;;16.50;67.10;;;;;;4897363;29;20066;-70
2022/05/02 11:37:54;;;;;;;15.10;9.10;;;16.50;67.60;;;;;;4217938;29;9999943;-70
2022/05/02 11:40:27;;;;;;;12.95;9.68;;;16.50;69.40;;;;;;4891928;29;20131;-70
2022/05/02 11:42:54;;;;;;;14.60;9.63;;;16.70;67.60;;;;;;4894903;29;20068;-70
2022/05/02 11:45:32;;;;;;;11.98;8.63;;;16.80;68.30;;;;;;4896565;29;20637;-70
2022/05/02 11:48:01;;;;;;;12.63;9.02;;;16.70;63.40;;;;;;4893627;29;20032;-70
2022/05/02 11:50:28;;;;;;;11.95;9.32;;;16.50;65.80;;;;;;4892518;29;20044;-70
2022/05/02 11:52:55;;;;;;;14.82;10.10;;;16.50;66.40;;;;;;4897947;29;20036;-70
2022/05/02 11:55:28;;;;;;;11.68;9.35;;;16.50;67.30;;;;;;4893976;29;20032;-70
2022/05/02 11:58:24;;;;;;;12.98;8.90;;;16.30;68.00;;;;;;4906085;29;20049;-69
2022/05/02 12:01:06;;;;;;;12.25;9.07;;;16.50;68.00;;;;;;4892886;29;20543;-70
2022/05/02 12:03:46;;;;;;;16.10;8.85;;;16.60;66.50;;;;;;4892865;29;20510;-70
2022/05/02 12:06:16;;;;;;;12.95;9.75;;;16.70;63.90;;;;;;4897295;29;20175;-70
2022/05/02 12:08:46;;;;;;;12.60;9.73;;;16.60;65.50;;;;;;4898465;29;20050;-70
2022/05/02 12:11:13;;;;;;;12.38;9.18;;;16.50;64.50;;;;;;4895697;29;20551;-70
2022/05/02 12:13:47;;;;;;;11.35;8.55;;;16.90;66.00;;;;;;4894851;29;20048;-71
2022/05/02 12:16:19;;;;;;;16.13;9.63;;;17.10;68.80;;;;;;4893353;29;20028;-70
2022/05/02 12:18:49;;;;;;;12.13;8.90;;;17.10;64.10;;;;;;4909506;29;20032;-70
2022/05/02 12:21:33;;;;;;;17.13;9.38;;;17.50;61.10;;;;;;4908338;29;20063;-70
2022/05/02 12:24:03;;;;;;;13.15;10.02;;;17.50;60.10;;;;;;4909911;29;20391;-70
2022/05/02 12:26:31;;;;;;;10.38;8.15;;;17.50;63.10;;;;;;4908002;29;20024;-70
2022/05/02 12:29:03;;;;;;;11.23;8.98;;;17.60;63.30;;;;;;4904531;29;20803;-70
2022/05/02 12:31:32;;;;;;;14.48;9.55;;;17.60;64.10;;;;;;4901994;29;20039;-70
2022/05/02 12:34:05;;;;;;;16.00;8.55;;;17.30;59.90;;;;;;4902048;29;20048;-70
2022/05/02 12:36:48;;;;;;;10.98;9.00;;;17.50;61.80;;;;;;4899212;29;20044;-70
2022/05/02 12:39:23;;;;;;;8.60;7.28;;;17.60;63.30;;;;;;4919455;29;20063;-72
2022/05/02 12:41:54;;;;;;;12.48;8.25;;;17.80;56.10;;;;;;4887272;29;20044;-69
2022/05/02 12:44:25;;;;;;;11.02;7.07;;;17.10;56.70;;;;;;4901069;29;20223;-70
2022/05/02 12:46:52;;;;;;;;;;;17.30;57.40;;;;;;4907088;29;20551;-70
2022/05/02 12:49:26;;;;;;;10.15;7.55;;;17.40;55.60;;;;;;4904693;29;19942;-70
2022/05/02 12:51:53;;;;;;;12.95;7.15;;;17.50;57.00;;;;;;4889178;29;20479;-70
2022/05/02 12:54:21;;;;;;;11.60;7.53;;;17.50;56.80;;;;;;4902886;29;20519;-70
2022/05/02 13:02:53;;;;;;;13.23;8.25;;;17.10;59.90;;;;;;4901275;29;20047;-70
2022/05/02 13:05:22;;;;;;;15.88;8.18;;;17.10;60.10;;;;;;4895975;29;20063;-69
2022/05/02 13:07:48;;;;;;;13.27;8.88;;;17.00;62.80;;;;;;4898818;29;20032;-69
2022/05/02 13:10:18;;;;;;;10.95;9.30;;;17.00;61.50;;;;;;4904076;29;20052;-69
2022/05/02 13:13:02;;;;;;;10.70;8.75;;;17.00;60.90;;;;;;4904662;29;20435;-70
2022/05/02 13:15:38;;;;;;;10.75;8.05;;;17.00;59.00;;;;;;4900884;29;20129;-71
2022/05/02 13:18:25;;;;;;;12.93;8.73;;;17.00;64.00;;;;;;4904089;29;20036;-71
2022/05/02 13:21:01;;;;;;;10.13;7.90;;;17.00;61.50;;;;;;4903563;29;20056;-71
2022/05/02 13:23:39;;;;;;;11.05;7.57;;;17.10;60.90;;;;;;4901501;29;20032;-71
2022/05/02 13:26:15;;;;;;;12.13;8.75;;;17.20;58.80;;;;;;4904855;29;20032;-70
2022/05/02 13:29:02;;;;;;;11.85;7.53;;;17.10;57.00;;;;;;4904051;29;20036;-70
2022/05/02 13:31:47;;;;;;;11.52;7.05;;;17.00;63.00;;;;;;4902136;29;20115;-70
2022/05/02 13:34:24;;;;;;;11.40;7.45;;;17.10;61.60;;;;;;4897627;29;20295;-70
2022/05/02 13:36:56;;;;;;;9.18;6.97;;;17.20;59.00;;;;;;4900644;29;20032;-70
2022/05/02 13:39:32;;;;;;;9.15;7.13;;;17.30;60.40;;;;;;4897217;29;20051;-70
2022/05/02 13:41:58;;;;;;;11.73;7.57;;;17.30;59.70;;;;;;4896813;29;20024;-69
2022/05/02 13:44:32;;;;;;;11.05;7.00;;;17.40;58.50;;;;;;4904746;29;20040;-69
2022/05/02 13:47:09;;;;;;;10.55;8.23;;;17.50;59.10;;;;;;4912189;29;20028;-69